RPA4459 KIND-KLGA
Flight info
| Callsign | RPA4459 |
|---|---|
| Flight time | N/A |
| Altitude | 31000 |
| Route | MAREO5 BDOCK WWSHR TEESY Q186 WEVEL ETG MIP4 |
| Aircraft | E75L/M-SDE3GILORVW/S |
Departure
| Time | N/A |
|---|---|
| Airport | Indianapolis International Airport (KIND) |
Arrival
| Time | 2026-05-08 02:31 |
|---|---|
| Airport | LaGuardia Airport (KLGA) |
| Time | Latitude | Longitude | Altitude | Speed | Heading |
|---|---|---|---|---|---|
| 2026-05-08 02:17 | 40.54910 | -74.94992 | 19522 ft | 420 kts | 117° |
| 2026-05-08 02:17 | 40.53959 | -74.91464 | 18992 ft | 415 kts | 117° |
| 2026-05-08 02:17 | 40.52996 | -74.87931 | 18440 ft | 410 kts | 117° |
| 2026-05-08 02:17 | 40.51994 | -74.84451 | 17868 ft | 403 kts | 118° |
| 2026-05-08 02:18 | 40.51024 | -74.81226 | 17419 ft | 395 kts | 119° |
| 2026-05-08 02:18 | 40.50069 | -74.78108 | 16898 ft | 390 kts | 119° |
| 2026-05-08 02:18 | 40.49088 | -74.74909 | 16411 ft | 387 kts | 118° |
| 2026-05-08 02:18 | 40.48089 | -74.71625 | 15909 ft | 387 kts | 118° |
| 2026-05-08 02:19 | 40.47178 | -74.68617 | 15414 ft | 387 kts | 117° |
| 2026-05-08 02:19 | 40.46226 | -74.65463 | 14942 ft | 385 kts | 117° |
| 2026-05-08 02:19 | 40.45256 | -74.62240 | 14468 ft | 380 kts | 117° |
| 2026-05-08 02:19 | 40.44295 | -74.59045 | 14080 ft | 372 kts | 117° |
| 2026-05-08 02:20 | 40.43345 | -74.55891 | 13530 ft | 371 kts | 115° |
| 2026-05-08 02:20 | 40.42923 | -74.52554 | 13064 ft | 371 kts | 87° |
| 2026-05-08 02:20 | 40.43470 | -74.49287 | 12649 ft | 362 kts | 67° |
| 2026-05-08 02:20 | 40.44498 | -74.46345 | 12152 ft | 357 kts | 61° |
| 2026-05-08 02:21 | 40.45577 | -74.43424 | 11686 ft | 352 kts | 63° |
| 2026-05-08 02:21 | 40.46508 | -74.40461 | 11208 ft | 349 kts | 68° |
| 2026-05-08 02:21 | 40.47319 | -74.37473 | 10755 ft | 345 kts | 69° |
| 2026-05-08 02:21 | 40.48088 | -74.34512 | 10284 ft | 336 kts | 69° |
| 2026-05-08 02:22 | 40.48578 | -74.32617 | 9971 ft | 322 kts | 69° |
| 2026-05-08 02:22 | 40.49286 | -74.29919 | 9580 ft | 304 kts | 69° |
| 2026-05-08 02:22 | 40.49980 | -74.27317 | 9263 ft | 303 kts | 68° |
| 2026-05-08 02:22 | 40.50693 | -74.24677 | 8811 ft | 306 kts | 69° |
| 2026-05-08 02:23 | 40.51594 | -74.21317 | 8266 ft | 303 kts | 69° |
| 2026-05-08 02:23 | 40.51920 | -74.20096 | 8078 ft | 302 kts | 69° |
| 2026-05-08 02:23 | 40.52589 | -74.17586 | 7695 ft | 299 kts | 69° |
| 2026-05-08 02:23 | 40.53222 | -74.15208 | 7328 ft | 296 kts | 70° |
| 2026-05-08 02:24 | 40.53853 | -74.12838 | 6965 ft | 294 kts | 70° |
| 2026-05-08 02:24 | 40.54520 | -74.10330 | 6583 ft | 291 kts | 70° |
| 2026-05-08 02:24 | 40.55191 | -74.07833 | 6194 ft | 288 kts | 68° |
| 2026-05-08 02:24 | 40.56266 | -74.05707 | 5836 ft | 281 kts | 40° |
| 2026-05-08 02:25 | 40.57807 | -74.04163 | 5473 ft | 277 kts | 32° |
| 2026-05-08 02:25 | 40.59405 | -74.02838 | 5043 ft | 263 kts | 29° |
| 2026-05-08 02:25 | 40.60864 | -74.01718 | 4743 ft | 248 kts | 28° |
| 2026-05-08 02:25 | 40.62306 | -74.00587 | 4452 ft | 234 kts | 30° |
| 2026-05-08 02:26 | 40.63635 | -73.99476 | 4145 ft | 224 kts | 32° |
| 2026-05-08 02:26 | 40.64529 | -73.98701 | 3924 ft | 217 kts | 32° |
| 2026-05-08 02:26 | 40.65578 | -73.97787 | 3709 ft | 208 kts | 32° |
| 2026-05-08 02:26 | 40.66616 | -73.96889 | 3471 ft | 197 kts | 32° |
| 2026-05-08 02:27 | 40.67517 | -73.96108 | 3252 ft | 187 kts | 32° |
| 2026-05-08 02:27 | 40.68353 | -73.95383 | 3095 ft | 183 kts | 32° |
| 2026-05-08 02:27 | 40.69407 | -73.94470 | 2849 ft | 184 kts | 32° |
| 2026-05-08 02:27 | 40.70323 | -73.93622 | 2589 ft | 182 kts | 39° |
| 2026-05-08 02:28 | 40.71116 | -73.92580 | 2442 ft | 180 kts | 48° |
| 2026-05-08 02:28 | 40.71733 | -73.91559 | 2248 ft | 181 kts | 51° |
| 2026-05-08 02:28 | 40.72343 | -73.90422 | 1992 ft | 182 kts | 61° |
| 2026-05-08 02:28 | 40.72673 | -73.88901 | 1765 ft | 176 kts | 82° |
| 2026-05-08 02:29 | 40.72731 | -73.87503 | 1518 ft | 168 kts | 86° |
| 2026-05-08 02:29 | 40.72777 | -73.86433 | 1358 ft | 156 kts | 83° |
| 2026-05-08 02:29 | 40.72888 | -73.85279 | 1146 ft | 146 kts | 79° |
| 2026-05-08 02:29 | 40.73176 | -73.84383 | 942 ft | 139 kts | 46° |
| 2026-05-08 02:30 | 40.73894 | -73.83666 | 812 ft | 136 kts | 32° |
| 2026-05-08 02:30 | 40.74762 | -73.83203 | 653 ft | 139 kts | 3° |
| 2026-05-08 02:30 | 40.75705 | -73.83397 | 458 ft | 139 kts | 346° |
| 2026-05-08 02:30 | 40.76453 | -73.84133 | 319 ft | 137 kts | 301° |
| 2026-05-08 02:31 | 40.76950 | -73.85199 | 162 ft | 138 kts | 306° |
| 2026-05-08 02:31 | 40.77467 | -73.86264 | 16 ft | 129 kts | 304° |
| 2026-05-08 02:31 | 40.77865 | -73.87084 | 12 ft | 92 kts | 302° |
| 2026-05-08 02:31 | 40.78075 | -73.87547 | 13 ft | 27 kts | 278° |
| 2026-05-08 02:32 | 40.78035 | -73.87640 | 13 ft | 10 kts | 210° |
| 2026-05-08 02:32 | 40.77989 | -73.87677 | 13 ft | 10 kts | 211° |
| 2026-05-08 02:32 | 40.77961 | -73.87675 | 16 ft | 6 kts | 143° |
| 2026-05-08 02:32 | 40.77921 | -73.87602 | 16 ft | 11 kts | 121° |
| 2026-05-08 02:33 | 40.77878 | -73.87510 | 14 ft | 12 kts | 126° |
| 2026-05-08 02:33 | 40.77836 | -73.87497 | 13 ft | 5 kts | 218° |
| 2026-05-08 02:33 | 40.77804 | -73.87530 | 14 ft | 6 kts | 218° |
| 2026-05-08 02:33 | 40.77771 | -73.87562 | 16 ft | 5 kts | 211° |
| 2026-05-08 02:34 | 40.77742 | -73.87584 | 18 ft | 5 kts | 210° |
| 2026-05-08 02:34 | 40.77707 | -73.87612 | 19 ft | 7 kts | 211° |
| 2026-05-08 02:34 | 40.77654 | -73.87653 | 19 ft | 10 kts | 210° |
| 2026-05-08 02:34 | 40.77600 | -73.87625 | 18 ft | 12 kts | 134° |
| 2026-05-08 02:35 | 40.77529 | -73.87554 | 17 ft | 14 kts | 148° |
| 2026-05-08 02:35 | 40.77479 | -73.87464 | 17 ft | 12 kts | 103° |
| 2026-05-08 02:35 | 40.77461 | -73.87371 | 17 ft | 0 kts | 126° |
| 2026-05-08 02:35 | 40.77454 | -73.87360 | 19 ft | 3 kts | 126° |
| 2026-05-08 02:36 | 40.77439 | -73.87327 | 17 ft | 4 kts | 99° |
| 2026-05-08 02:36 | 40.77455 | -73.87300 | 18 ft | 4 kts | 35° |
| 2026-05-08 02:36 | 40.77465 | -73.87291 | 17 ft | 2 kts | 31° |
| 2026-05-08 02:36 | 40.77481 | -73.87277 | 17 ft | 2 kts | 37° |
| 2026-05-08 02:37 | 40.77484 | -73.87274 | 17 ft | 0 kts | 37° |
| 2026-05-08 02:37 | 40.77485 | -73.87273 | 17 ft | 0 kts | 37° |